LIPH

Treviso-Sant'Angelo Airport

Treviso, Italy
TAF LIPH 201100Z 2012/2112 VRB04KT CAVOK TEMPO 2014/2024 4000 TSRA
Issued Valid From Valid To
Jul-20 @ 11:00 UTC
(4 hours ago)
Jul-20 @ 12:00 UTC
(3 hours ago)
Jul-21 @ 12:00 UTC
(in 21 hours)
Jul-20 @ 12:00 to Jul-21 @ 12:00
TAF LIPH 201100Z 2012/2112 VRB04KT CAVOK
Wind Visibility Clouds Conditions
Variable at 4 knots 10,000+ meters
  • No significant clouds
Temporary Jul-20 @ 14:00 to Jul-21 @ 00:00
TEMPO 2014/2024 4000 TSRA
Visibility Conditions
4,007 meters
  • Thunderstorm
  • Rain
TAF LIPH 201100Z 2012/2112 VRB04KT CAVOK TEMPO 2014/2024 4000 TSRA
Issued Jul-20 @ 11:00 UTC
(4 hours ago)
Valid From Jul-20 @ 12:00 UTC
(3 hours ago)
Valid To Jul-21 @ 12:00 UTC
(in 21 hours)
Jul-20 @ 12:00 - Jul-21 @ 12:00
Wind Visibility
Variable at 4 knots 10,000+ meters
Clouds
  • No significant clouds
Conditions
Temporary Jul-20 @ 14:00 - Jul-21 @ 00:00
Conditions
  • Thunderstorm
  • Rain